sensor_id;sensor_type;location;lat;lon;timestamp;P1;durP1;ratioP1;P2;durP2;ratioP2
41514;SDS011;27247;48.020;16.720;2023-09-12T00:00:18;18.17;;;13.43;;
41514;SDS011;27247;48.020;16.720;2023-09-12T00:04:28;17.93;;;12.03;;
41514;SDS011;27247;48.020;16.720;2023-09-12T00:08:38;18.27;;;13.20;;
41514;SDS011;27247;48.020;16.720;2023-09-12T00:12:49;16.90;;;12.83;;
41514;SDS011;27247;48.020;16.720;2023-09-12T00:16:59;19.43;;;12.57;;
41514;SDS011;27247;48.020;16.720;2023-09-12T00:21:10;23.90;;;13.10;;
41514;SDS011;27247;48.020;16.720;2023-09-12T00:25:20;15.53;;;12.60;;
41514;SDS011;27247;48.020;16.720;2023-09-12T00:29:31;15.52;;;12.70;;
41514;SDS011;27247;48.020;16.720;2023-09-12T00:33:42;16.73;;;13.20;;
41514;SDS011;27247;48.020;16.720;2023-09-12T00:37:52;16.83;;;14.03;;
41514;SDS011;27247;48.020;16.720;2023-09-12T00:42:03;16.73;;;13.27;;
41514;SDS011;27247;48.020;16.720;2023-09-12T00:46:18;20.38;;;13.98;;
41514;SDS011;27247;48.020;16.720;2023-09-12T00:50:29;16.33;;;13.30;;
41514;SDS011;27247;48.020;16.720;2023-09-12T00:54:41;18.38;;;14.30;;
41514;SDS011;27247;48.020;16.720;2023-09-12T00:58:52;16.90;;;13.20;;
41514;SDS011;27247;48.020;16.720;2023-09-12T01:03:02;25.52;;;14.45;;
41514;SDS011;27247;48.020;16.720;2023-09-12T01:07:13;18.63;;;14.30;;
41514;SDS011;27247;48.020;16.720;2023-09-12T01:11:24;18.70;;;14.90;;
41514;SDS011;27247;48.020;16.720;2023-09-12T01:15:34;23.33;;;14.77;;
41514;SDS011;27247;48.020;16.720;2023-09-12T01:19:44;17.83;;;13.63;;
41514;SDS011;27247;48.020;16.720;2023-09-12T01:28:22;14.85;;;13.25;;
41514;SDS011;27247;48.020;16.720;2023-09-12T01:32:35;19.98;;;14.93;;
41514;SDS011;27247;48.020;16.720;2023-09-12T01:36:47;21.55;;;15.57;;
41514;SDS011;27247;48.020;16.720;2023-09-12T01:40:57;24.10;;;17.37;;
41514;SDS011;27247;48.020;16.720;2023-09-12T01:45:12;18.98;;;15.48;;
41514;SDS011;27247;48.020;16.720;2023-09-12T01:49:25;20.70;;;14.90;;
41514;SDS011;27247;48.020;16.720;2023-09-12T01:53:37;19.05;;;15.38;;
41514;SDS011;27247;48.020;16.720;2023-09-12T01:57:48;20.77;;;15.25;;
41514;SDS011;27247;48.020;16.720;2023-09-12T02:01:59;19.00;;;14.95;;
41514;SDS011;27247;48.020;16.720;2023-09-12T02:06:09;18.30;;;15.00;;
41514;SDS011;27247;48.020;16.720;2023-09-12T02:10:20;19.70;;;14.70;;
41514;SDS011;27247;48.020;16.720;2023-09-12T02:14:31;19.45;;;14.98;;
41514;SDS011;27247;48.020;16.720;2023-09-12T02:18:42;22.17;;;16.43;;
41514;SDS011;27247;48.020;16.720;2023-09-12T02:22:52;19.83;;;15.27;;
41514;SDS011;27247;48.020;16.720;2023-09-12T02:27:02;18.87;;;15.00;;
41514;SDS011;27247;48.020;16.720;2023-09-12T02:31:13;22.08;;;16.38;;
41514;SDS011;27247;48.020;16.720;2023-09-12T02:35:23;26.23;;;16.33;;
41514;SDS011;27247;48.020;16.720;2023-09-12T02:39:34;22.77;;;15.98;;
41514;SDS011;27247;48.020;16.720;2023-09-12T02:43:44;24.87;;;16.50;;
41514;SDS011;27247;48.020;16.720;2023-09-12T02:47:54;18.60;;;15.63;;
41514;SDS011;27247;48.020;16.720;2023-09-12T02:52:05;22.13;;;15.50;;
41514;SDS011;27247;48.020;16.720;2023-09-12T02:56:15;24.73;;;18.23;;
41514;SDS011;27247;48.020;16.720;2023-09-12T03:00:25;23.63;;;16.43;;
41514;SDS011;27247;48.020;16.720;2023-09-12T03:04:35;25.83;;;17.53;;
41514;SDS011;27247;48.020;16.720;2023-09-12T03:08:50;19.65;;;15.65;;
41514;SDS011;27247;48.020;16.720;2023-09-12T03:13:00;20.08;;;17.00;;
41514;SDS011;27247;48.020;16.720;2023-09-12T03:17:10;18.47;;;15.60;;
41514;SDS011;27247;48.020;16.720;2023-09-12T03:21:20;25.33;;;18.20;;
41514;SDS011;27247;48.020;16.720;2023-09-12T03:25:35;29.15;;;18.17;;
41514;SDS011;27247;48.020;16.720;2023-09-12T03:29:47;24.42;;;18.10;;
41514;SDS011;27247;48.020;16.720;2023-09-12T03:33:58;22.27;;;17.10;;
41514;SDS011;27247;48.020;16.720;2023-09-12T03:38:08;22.47;;;15.87;;
41514;SDS011;27247;48.020;16.720;2023-09-12T03:42:18;26.70;;;18.20;;
41514;SDS011;27247;48.020;16.720;2023-09-12T03:46:29;23.07;;;17.27;;
41514;SDS011;27247;48.020;16.720;2023-09-12T03:50:39;27.20;;;16.90;;
41514;SDS011;27247;48.020;16.720;2023-09-12T03:54:49;24.63;;;17.43;;
41514;SDS011;27247;48.020;16.720;2023-09-12T03:59:00;26.63;;;17.77;;
41514;SDS011;27247;48.020;16.720;2023-09-12T04:03:10;21.53;;;14.77;;
41514;SDS011;27247;48.020;16.720;2023-09-12T04:07:20;21.67;;;15.57;;
41514;SDS011;27247;48.020;16.720;2023-09-12T04:11:31;16.83;;;13.07;;
41514;SDS011;27247;48.020;16.720;2023-09-12T04:15:41;18.80;;;15.20;;
41514;SDS011;27247;48.020;16.720;2023-09-12T04:19:51;22.47;;;14.57;;
41514;SDS011;27247;48.020;16.720;2023-09-12T04:24:02;20.30;;;14.43;;
41514;SDS011;27247;48.020;16.720;2023-09-12T04:28:12;20.80;;;15.40;;
41514;SDS011;27247;48.020;16.720;2023-09-12T04:32:22;19.40;;;15.43;;
41514;SDS011;27247;48.020;16.720;2023-09-12T04:36:33;22.73;;;14.93;;
41514;SDS011;27247;48.020;16.720;2023-09-12T04:40:43;19.93;;;15.50;;
41514;SDS011;27247;48.020;16.720;2023-09-12T04:45:03;21.77;;;14.85;;
41514;SDS011;27247;48.020;16.720;2023-09-12T04:49:14;20.42;;;14.77;;
41514;SDS011;27247;48.020;16.720;2023-09-12T04:53:24;24.48;;;14.27;;
41514;SDS011;27247;48.020;16.720;2023-09-12T04:57:34;25.80;;;17.63;;
41514;SDS011;27247;48.020;16.720;2023-09-12T05:01:45;26.50;;;18.45;;
41514;SDS011;27247;48.020;16.720;2023-09-12T05:05:55;29.50;;;19.77;;
41514;SDS011;27247;48.020;16.720;2023-09-12T05:10:06;25.10;;;18.58;;
41514;SDS011;27247;48.020;16.720;2023-09-12T05:14:16;20.88;;;17.10;;
41514;SDS011;27247;48.020;16.720;2023-09-12T05:18:27;22.13;;;19.13;;
41514;SDS011;27247;48.020;16.720;2023-09-12T05:22:37;20.20;;;17.23;;
41514;SDS011;27247;48.020;16.720;2023-09-12T05:26:47;25.30;;;19.10;;
41514;SDS011;27247;48.020;16.720;2023-09-12T05:30:59;22.73;;;18.30;;
41514;SDS011;27247;48.020;16.720;2023-09-12T05:35:09;23.63;;;18.38;;
41514;SDS011;27247;48.020;16.720;2023-09-12T05:39:20;29.42;;;19.83;;
41514;SDS011;27247;48.020;16.720;2023-09-12T05:43:30;27.95;;;19.15;;
41514;SDS011;27247;48.020;16.720;2023-09-12T05:47:40;25.00;;;19.07;;
41514;SDS011;27247;48.020;16.720;2023-09-12T05:51:51;26.13;;;19.70;;
41514;SDS011;27247;48.020;16.720;2023-09-12T05:56:01;25.63;;;18.67;;
41514;SDS011;27247;48.020;16.720;2023-09-12T06:00:12;27.83;;;20.20;;
41514;SDS011;27247;48.020;16.720;2023-09-12T06:04:24;26.05;;;17.60;;
41514;SDS011;27247;48.020;16.720;2023-09-12T06:08:35;38.10;;;17.90;;
41514;SDS011;27247;48.020;16.720;2023-09-12T06:12:45;22.43;;;16.70;;
41514;SDS011;27247;48.020;16.720;2023-09-12T06:16:55;27.00;;;17.40;;
41514;SDS011;27247;48.020;16.720;2023-09-12T06:21:06;25.63;;;17.45;;
41514;SDS011;27247;48.020;16.720;2023-09-12T06:25:18;26.63;;;17.35;;
41514;SDS011;27247;48.020;16.720;2023-09-12T06:29:28;19.30;;;16.00;;
41514;SDS011;27247;48.020;16.720;2023-09-12T06:33:39;21.33;;;14.90;;
41514;SDS011;27247;48.020;16.720;2023-09-12T06:37:49;19.27;;;14.13;;
41514;SDS011;27247;48.020;16.720;2023-09-12T06:41:59;22.83;;;14.73;;
41514;SDS011;27247;48.020;16.720;2023-09-12T06:46:10;28.73;;;15.45;;
41514;SDS011;27247;48.020;16.720;2023-09-12T06:50:20;19.27;;;15.00;;
41514;SDS011;27247;48.020;16.720;2023-09-12T06:54:31;18.30;;;13.53;;
41514;SDS011;27247;48.020;16.720;2023-09-12T06:58:42;21.23;;;14.48;;
41514;SDS011;27247;48.020;16.720;2023-09-12T07:02:53;25.50;;;15.27;;
41514;SDS011;27247;48.020;16.720;2023-09-12T07:07:03;25.40;;;15.13;;
41514;SDS011;27247;48.020;16.720;2023-09-12T07:11:14;21.38;;;13.48;;
41514;SDS011;27247;48.020;16.720;2023-09-12T07:15:25;22.05;;;14.20;;
41514;SDS011;27247;48.020;16.720;2023-09-12T07:19:35;25.58;;;14.70;;
41514;SDS011;27247;48.020;16.720;2023-09-12T07:23:47;23.50;;;14.00;;
41514;SDS011;27247;48.020;16.720;2023-09-12T07:27:58;26.75;;;14.70;;
41514;SDS011;27247;48.020;16.720;2023-09-12T07:32:08;19.47;;;14.27;;
41514;SDS011;27247;48.020;16.720;2023-09-12T07:36:18;19.20;;;14.03;;
41514;SDS011;27247;48.020;16.720;2023-09-12T07:40:29;19.77;;;14.03;;
41514;SDS011;27247;48.020;16.720;2023-09-12T07:44:39;22.47;;;13.43;;
41514;SDS011;27247;48.020;16.720;2023-09-12T07:48:49;18.00;;;13.47;;
41514;SDS011;27247;48.020;16.720;2023-09-12T07:53:00;26.00;;;13.77;;
41514;SDS011;27247;48.020;16.720;2023-09-12T07:57:10;24.73;;;13.15;;
41514;SDS011;27247;48.020;16.720;2023-09-12T08:01:20;21.50;;;13.13;;
41514;SDS011;27247;48.020;16.720;2023-09-12T08:05:31;17.17;;;13.20;;
41514;SDS011;27247;48.020;16.720;2023-09-12T08:09:54;17.63;;;12.53;;
41514;SDS011;27247;48.020;16.720;2023-09-12T08:14:07;24.05;;;13.27;;
41514;SDS011;27247;48.020;16.720;2023-09-12T08:18:17;19.03;;;12.57;;
41514;SDS011;27247;48.020;16.720;2023-09-12T08:22:27;19.33;;;13.05;;
41514;SDS011;27247;48.020;16.720;2023-09-12T08:26:38;21.53;;;13.10;;
41514;SDS011;27247;48.020;16.720;2023-09-12T08:30:48;24.03;;;12.87;;
41514;SDS011;27247;48.020;16.720;2023-09-12T08:34:58;20.50;;;12.80;;
41514;SDS011;27247;48.020;16.720;2023-09-12T08:39:11;20.98;;;12.63;;
41514;SDS011;27247;48.020;16.720;2023-09-12T08:43:23;21.90;;;11.93;;
41514;SDS011;27247;48.020;16.720;2023-09-12T08:47:33;19.20;;;12.23;;
41514;SDS011;27247;48.020;16.720;2023-09-12T08:51:45;19.08;;;12.10;;
41514;SDS011;27247;48.020;16.720;2023-09-12T08:55:56;14.48;;;11.20;;
41514;SDS011;27247;48.020;16.720;2023-09-12T09:00:07;20.40;;;13.02;;
41514;SDS011;27247;48.020;16.720;2023-09-12T09:04:23;20.50;;;12.18;;
41514;SDS011;27247;48.020;16.720;2023-09-12T09:08:36;17.75;;;11.93;;
41514;SDS011;27247;48.020;16.720;2023-09-12T09:12:48;16.88;;;12.55;;
41514;SDS011;27247;48.020;16.720;2023-09-12T09:16:58;21.63;;;11.68;;
41514;SDS011;27247;48.020;16.720;2023-09-12T09:21:16;17.75;;;12.77;;
41514;SDS011;27247;48.020;16.720;2023-09-12T09:25:29;23.80;;;12.13;;
41514;SDS011;27247;48.020;16.720;2023-09-12T09:29:47;22.02;;;12.35;;
41514;SDS011;27247;48.020;16.720;2023-09-12T09:33:58;25.52;;;11.60;;
41514;SDS011;27247;48.020;16.720;2023-09-12T09:38:09;17.40;;;12.75;;
41514;SDS011;27247;48.020;16.720;2023-09-12T09:42:19;17.75;;;11.85;;
41514;SDS011;27247;48.020;16.720;2023-09-12T09:46:30;22.52;;;11.65;;
41514;SDS011;27247;48.020;16.720;2023-09-12T09:50:40;21.97;;;12.43;;
41514;SDS011;27247;48.020;16.720;2023-09-12T09:54:50;13.90;;;11.37;;
41514;SDS011;27247;48.020;16.720;2023-09-12T09:59:01;14.70;;;11.03;;
41514;SDS011;27247;48.020;16.720;2023-09-12T10:03:12;16.53;;;10.93;;
41514;SDS011;27247;48.020;16.720;2023-09-12T10:07:28;11.60;;;10.05;;
41514;SDS011;27247;48.020;16.720;2023-09-12T10:11:43;15.23;;;11.32;;
41514;SDS011;27247;48.020;16.720;2023-09-12T10:15:57;14.63;;;10.63;;
41514;SDS011;27247;48.020;16.720;2023-09-12T10:20:15;12.18;;;10.90;;
41514;SDS011;27247;48.020;16.720;2023-09-12T10:24:28;14.23;;;10.90;;
41514;SDS011;27247;48.020;16.720;2023-09-12T10:28:41;21.48;;;11.88;;
41514;SDS011;27247;48.020;16.720;2023-09-12T10:32:52;14.32;;;11.40;;
41514;SDS011;27247;48.020;16.720;2023-09-12T10:37:04;15.50;;;11.18;;
41514;SDS011;27247;48.020;16.720;2023-09-12T10:41:16;20.10;;;12.63;;
41514;SDS011;27247;48.020;16.720;2023-09-12T10:45:27;13.57;;;11.52;;
41514;SDS011;27247;48.020;16.720;2023-09-12T10:49:38;13.05;;;11.38;;
41514;SDS011;27247;48.020;16.720;2023-09-12T10:53:50;19.65;;;11.63;;
41514;SDS011;27247;48.020;16.720;2023-09-12T10:58:05;22.05;;;10.27;;
41514;SDS011;27247;48.020;16.720;2023-09-12T11:02:37;12.25;;;11.05;;
41514;SDS011;27247;48.020;16.720;2023-09-12T11:06:49;30.70;;;12.52;;
41514;SDS011;27247;48.020;16.720;2023-09-12T11:11:21;17.45;;;10.70;;
41514;SDS011;27247;48.020;16.720;2023-09-12T11:15:31;15.10;;;10.75;;
41514;SDS011;27247;48.020;16.720;2023-09-12T11:19:48;15.45;;;11.32;;
41514;SDS011;27247;48.020;16.720;2023-09-12T11:24:02;17.65;;;11.98;;
41514;SDS011;27247;48.020;16.720;2023-09-12T11:28:14;35.28;;;12.18;;
41514;SDS011;27247;48.020;16.720;2023-09-12T11:32:30;44.25;;;12.73;;
41514;SDS011;27247;48.020;16.720;2023-09-12T11:36:41;16.08;;;11.82;;
41514;SDS011;27247;48.020;16.720;2023-09-12T11:40:52;26.50;;;11.93;;
41514;SDS011;27247;48.020;16.720;2023-09-12T11:45:03;141.30;;;19.60;;
41514;SDS011;27247;48.020;16.720;2023-09-12T11:49:18;16.90;;;11.48;;
41514;SDS011;27247;48.020;16.720;2023-09-12T11:53:29;17.23;;;11.00;;
41514;SDS011;27247;48.020;16.720;2023-09-12T11:57:42;34.88;;;12.73;;
41514;SDS011;27247;48.020;16.720;2023-09-12T12:01:53;22.73;;;12.67;;
41514;SDS011;27247;48.020;16.720;2023-09-12T12:06:04;12.70;;;11.05;;
41514;SDS011;27247;48.020;16.720;2023-09-12T12:10:15;16.75;;;10.82;;
41514;SDS011;27247;48.020;16.720;2023-09-12T12:14:27;18.70;;;10.68;;
41514;SDS011;27247;48.020;16.720;2023-09-12T12:18:37;13.73;;;9.63;;
41514;SDS011;27247;48.020;16.720;2023-09-12T12:22:47;43.93;;;12.00;;
41514;SDS011;27247;48.020;16.720;2023-09-12T12:27:02;29.48;;;12.25;;
41514;SDS011;27247;48.020;16.720;2023-09-12T12:31:13;19.38;;;11.00;;
41514;SDS011;27247;48.020;16.720;2023-09-12T12:35:23;17.73;;;10.90;;
41514;SDS011;27247;48.020;16.720;2023-09-12T12:39:34;16.95;;;10.55;;
41514;SDS011;27247;48.020;16.720;2023-09-12T12:43:44;17.77;;;10.93;;
41514;SDS011;27247;48.020;16.720;2023-09-12T12:47:57;12.73;;;10.10;;
41514;SDS011;27247;48.020;16.720;2023-09-12T12:52:09;12.30;;;10.60;;
41514;SDS011;27247;48.020;16.720;2023-09-12T12:56:21;20.55;;;10.95;;
41514;SDS011;27247;48.020;16.720;2023-09-12T13:00:32;14.93;;;11.07;;
41514;SDS011;27247;48.020;16.720;2023-09-12T13:04:43;11.40;;;10.10;;
41514;SDS011;27247;48.020;16.720;2023-09-12T13:08:53;19.02;;;11.07;;
41514;SDS011;27247;48.020;16.720;2023-09-12T13:13:04;15.38;;;11.48;;
41514;SDS011;27247;48.020;16.720;2023-09-12T13:17:14;17.27;;;11.13;;
41514;SDS011;27247;48.020;16.720;2023-09-12T13:21:25;15.32;;;11.18;;
41514;SDS011;27247;48.020;16.720;2023-09-12T13:25:35;16.13;;;10.83;;
41514;SDS011;27247;48.020;16.720;2023-09-12T13:29:45;16.73;;;11.90;;
41514;SDS011;27247;48.020;16.720;2023-09-12T13:33:57;16.08;;;11.25;;
41514;SDS011;27247;48.020;16.720;2023-09-12T13:38:08;14.13;;;10.77;;
41514;SDS011;27247;48.020;16.720;2023-09-12T13:42:19;13.70;;;10.43;;
41514;SDS011;27247;48.020;16.720;2023-09-12T13:46:30;12.35;;;10.57;;
41514;SDS011;27247;48.020;16.720;2023-09-12T13:50:41;14.25;;;10.20;;
41514;SDS011;27247;48.020;16.720;2023-09-12T13:54:53;17.67;;;10.48;;
41514;SDS011;27247;48.020;16.720;2023-09-12T13:59:03;16.63;;;9.77;;
41514;SDS011;27247;48.020;16.720;2023-09-12T14:03:15;20.08;;;10.75;;
41514;SDS011;27247;48.020;16.720;2023-09-12T14:07:26;14.80;;;9.68;;
41514;SDS011;27247;48.020;16.720;2023-09-12T14:11:36;13.77;;;9.38;;
41514;SDS011;27247;48.020;16.720;2023-09-12T14:15:48;11.05;;;9.98;;
41514;SDS011;27247;48.020;16.720;2023-09-12T14:19:59;11.43;;;10.27;;
41514;SDS011;27247;48.020;16.720;2023-09-12T14:24:11;16.42;;;9.43;;
41514;SDS011;27247;48.020;16.720;2023-09-12T14:28:22;20.83;;;10.32;;
41514;SDS011;27247;48.020;16.720;2023-09-12T14:32:35;14.65;;;9.45;;
41514;SDS011;27247;48.020;16.720;2023-09-12T14:36:46;17.40;;;10.63;;
41514;SDS011;27247;48.020;16.720;2023-09-12T14:40:57;19.70;;;9.02;;
41514;SDS011;27247;48.020;16.720;2023-09-12T14:45:08;16.48;;;9.43;;
41514;SDS011;27247;48.020;16.720;2023-09-12T14:49:21;21.38;;;9.13;;
41514;SDS011;27247;48.020;16.720;2023-09-12T14:53:34;11.32;;;8.68;;
41514;SDS011;27247;48.020;16.720;2023-09-12T14:57:45;25.70;;;9.13;;
41514;SDS011;27247;48.020;16.720;2023-09-12T15:01:56;21.52;;;9.93;;
41514;SDS011;27247;48.020;16.720;2023-09-12T15:06:06;29.40;;;9.88;;
41514;SDS011;27247;48.020;16.720;2023-09-12T15:10:17;25.98;;;9.77;;
41514;SDS011;27247;48.020;16.720;2023-09-12T15:14:28;17.35;;;8.98;;
41514;SDS011;27247;48.020;16.720;2023-09-12T15:18:40;18.33;;;9.50;;
41514;SDS011;27247;48.020;16.720;2023-09-12T15:22:52;16.73;;;9.23;;
41514;SDS011;27247;48.020;16.720;2023-09-12T15:27:02;17.98;;;9.00;;
41514;SDS011;27247;48.020;16.720;2023-09-12T15:31:13;14.90;;;9.35;;
41514;SDS011;27247;48.020;16.720;2023-09-12T15:35:24;11.02;;;8.50;;
41514;SDS011;27247;48.020;16.720;2023-09-12T15:39:34;16.42;;;9.20;;
41514;SDS011;27247;48.020;16.720;2023-09-12T15:43:45;19.42;;;9.73;;
41514;SDS011;27247;48.020;16.720;2023-09-12T15:47:56;13.98;;;9.13;;
41514;SDS011;27247;48.020;16.720;2023-09-12T15:52:07;11.95;;;8.93;;
41514;SDS011;27247;48.020;16.720;2023-09-12T15:56:17;13.43;;;8.82;;
41514;SDS011;27247;48.020;16.720;2023-09-12T16:00:28;15.13;;;9.05;;
41514;SDS011;27247;48.020;16.720;2023-09-12T16:04:38;16.83;;;9.65;;
41514;SDS011;27247;48.020;16.720;2023-09-12T16:08:49;17.83;;;9.45;;
41514;SDS011;27247;48.020;16.720;2023-09-12T16:12:59;13.02;;;9.15;;
41514;SDS011;27247;48.020;16.720;2023-09-12T16:17:10;15.27;;;9.40;;
41514;SDS011;27247;48.020;16.720;2023-09-12T16:21:21;14.55;;;9.00;;
41514;SDS011;27247;48.020;16.720;2023-09-12T16:25:35;14.98;;;9.07;;
41514;SDS011;27247;48.020;16.720;2023-09-12T16:29:45;12.70;;;9.00;;
41514;SDS011;27247;48.020;16.720;2023-09-12T16:33:56;13.70;;;9.18;;
41514;SDS011;27247;48.020;16.720;2023-09-12T16:38:06;11.32;;;9.48;;
41514;SDS011;27247;48.020;16.720;2023-09-12T16:42:17;14.25;;;9.23;;
41514;SDS011;27247;48.020;16.720;2023-09-12T16:46:28;13.18;;;8.90;;
41514;SDS011;27247;48.020;16.720;2023-09-12T16:50:40;14.40;;;9.38;;
41514;SDS011;27247;48.020;16.720;2023-09-12T16:54:51;12.20;;;8.18;;
41514;SDS011;27247;48.020;16.720;2023-09-12T16:59:01;12.20;;;8.30;;
41514;SDS011;27247;48.020;16.720;2023-09-12T17:03:12;11.40;;;8.75;;
41514;SDS011;27247;48.020;16.720;2023-09-12T17:07:23;13.05;;;8.90;;
41514;SDS011;27247;48.020;16.720;2023-09-12T17:11:34;12.73;;;8.52;;
41514;SDS011;27247;48.020;16.720;2023-09-12T17:15:45;15.00;;;9.10;;
41514;SDS011;27247;48.020;16.720;2023-09-12T17:19:57;11.95;;;8.52;;
41514;SDS011;27247;48.020;16.720;2023-09-12T17:24:08;15.45;;;9.27;;
41514;SDS011;27247;48.020;16.720;2023-09-12T17:28:21;12.80;;;8.80;;
41514;SDS011;27247;48.020;16.720;2023-09-12T17:32:32;13.25;;;9.18;;
41514;SDS011;27247;48.020;16.720;2023-09-12T17:36:44;12.38;;;9.20;;
41514;SDS011;27247;48.020;16.720;2023-09-12T17:40:55;12.70;;;9.73;;
41514;SDS011;27247;48.020;16.720;2023-09-12T17:45:06;13.50;;;9.10;;
41514;SDS011;27247;48.020;16.720;2023-09-12T17:49:17;15.38;;;9.52;;
41514;SDS011;27247;48.020;16.720;2023-09-12T17:53:29;14.10;;;9.73;;
41514;SDS011;27247;48.020;16.720;2023-09-12T17:57:40;14.55;;;9.98;;
41514;SDS011;27247;48.020;16.720;2023-09-12T18:01:50;13.45;;;9.27;;
41514;SDS011;27247;48.020;16.720;2023-09-12T18:06:00;16.03;;;10.33;;
41514;SDS011;27247;48.020;16.720;2023-09-12T18:10:14;16.17;;;9.52;;
41514;SDS011;27247;48.020;16.720;2023-09-12T18:14:25;11.32;;;9.63;;
41514;SDS011;27247;48.020;16.720;2023-09-12T18:18:37;11.32;;;10.07;;
41514;SDS011;27247;48.020;16.720;2023-09-12T18:22:48;15.10;;;10.32;;
41514;SDS011;27247;48.020;16.720;2023-09-12T18:26:59;14.90;;;10.70;;
41514;SDS011;27247;48.020;16.720;2023-09-12T18:31:13;16.25;;;9.82;;
41514;SDS011;27247;48.020;16.720;2023-09-12T18:35:25;12.15;;;10.02;;
41514;SDS011;27247;48.020;16.720;2023-09-12T18:39:36;17.20;;;10.60;;
41514;SDS011;27247;48.020;16.720;2023-09-12T18:43:47;11.38;;;10.00;;
41514;SDS011;27247;48.020;16.720;2023-09-12T18:48:00;18.08;;;11.52;;
41514;SDS011;27247;48.020;16.720;2023-09-12T18:52:12;13.70;;;10.98;;
41514;SDS011;27247;48.020;16.720;2023-09-12T18:56:26;17.10;;;11.77;;
41514;SDS011;27247;48.020;16.720;2023-09-12T19:00:40;14.57;;;10.43;;
41514;SDS011;27247;48.020;16.720;2023-09-12T19:04:54;16.10;;;10.82;;
41514;SDS011;27247;48.020;16.720;2023-09-12T19:09:11;17.88;;;12.30;;
41514;SDS011;27247;48.020;16.720;2023-09-12T19:13:24;14.63;;;11.30;;
41514;SDS011;27247;48.020;16.720;2023-09-12T19:17:37;14.05;;;11.57;;
41514;SDS011;27247;48.020;16.720;2023-09-12T19:21:49;17.15;;;11.60;;
41514;SDS011;27247;48.020;16.720;2023-09-12T19:26:07;16.30;;;12.05;;
41514;SDS011;27247;48.020;16.720;2023-09-12T19:30:18;16.52;;;12.05;;
41514;SDS011;27247;48.020;16.720;2023-09-12T19:34:28;15.05;;;12.88;;
41514;SDS011;27247;48.020;16.720;2023-09-12T19:38:39;17.03;;;13.17;;
41514;SDS011;27247;48.020;16.720;2023-09-12T19:42:52;15.13;;;13.10;;
41514;SDS011;27247;48.020;16.720;2023-09-12T19:47:03;18.23;;;13.27;;
41514;SDS011;27247;48.020;16.720;2023-09-12T19:51:14;16.35;;;12.57;;
41514;SDS011;27247;48.020;16.720;2023-09-12T19:55:25;14.43;;;11.82;;
41514;SDS011;27247;48.020;16.720;2023-09-12T19:59:37;13.85;;;12.40;;
41514;SDS011;27247;48.020;16.720;2023-09-12T20:03:48;23.10;;;12.13;;
41514;SDS011;27247;48.020;16.720;2023-09-12T20:07:59;24.33;;;12.30;;
41514;SDS011;27247;48.020;16.720;2023-09-12T20:12:11;16.88;;;13.77;;
41514;SDS011;27247;48.020;16.720;2023-09-12T20:16:22;17.40;;;12.35;;
41514;SDS011;27247;48.020;16.720;2023-09-12T20:20:33;18.05;;;12.95;;
41514;SDS011;27247;48.020;16.720;2023-09-12T20:24:46;17.42;;;13.07;;
41514;SDS011;27247;48.020;16.720;2023-09-12T20:28:56;14.00;;;12.55;;
41514;SDS011;27247;48.020;16.720;2023-09-12T20:33:07;17.05;;;14.07;;
41514;SDS011;27247;48.020;16.720;2023-09-12T20:37:18;17.05;;;13.57;;
41514;SDS011;27247;48.020;16.720;2023-09-12T20:41:29;22.95;;;13.15;;
41514;SDS011;27247;48.020;16.720;2023-09-12T20:45:40;20.92;;;15.48;;
41514;SDS011;27247;48.020;16.720;2023-09-12T20:49:51;19.00;;;13.73;;
41514;SDS011;27247;48.020;16.720;2023-09-12T20:54:09;21.45;;;14.20;;
41514;SDS011;27247;48.020;16.720;2023-09-12T20:58:20;17.30;;;14.43;;
41514;SDS011;27247;48.020;16.720;2023-09-12T21:02:30;19.52;;;14.80;;
41514;SDS011;27247;48.020;16.720;2023-09-12T21:06:41;16.47;;;14.60;;
41514;SDS011;27247;48.020;16.720;2023-09-12T21:10:51;16.95;;;14.45;;
41514;SDS011;27247;48.020;16.720;2023-09-12T21:15:02;22.77;;;15.60;;
41514;SDS011;27247;48.020;16.720;2023-09-12T21:19:14;18.88;;;14.00;;
41514;SDS011;27247;48.020;16.720;2023-09-12T21:23:25;23.45;;;14.57;;
41514;SDS011;27247;48.020;16.720;2023-09-12T21:27:35;19.45;;;15.10;;
41514;SDS011;27247;48.020;16.720;2023-09-12T21:31:45;18.50;;;15.43;;
41514;SDS011;27247;48.020;16.720;2023-09-12T21:35:56;19.47;;;15.10;;
41514;SDS011;27247;48.020;16.720;2023-09-12T21:40:06;19.13;;;15.13;;
41514;SDS011;27247;48.020;16.720;2023-09-12T21:44:17;19.10;;;15.10;;
41514;SDS011;27247;48.020;16.720;2023-09-12T21:48:28;19.53;;;15.43;;
41514;SDS011;27247;48.020;16.720;2023-09-12T21:52:38;24.67;;;15.32;;
41514;SDS011;27247;48.020;16.720;2023-09-12T21:56:49;22.83;;;16.50;;
41514;SDS011;27247;48.020;16.720;2023-09-12T22:01:00;21.73;;;15.33;;
41514;SDS011;27247;48.020;16.720;2023-09-12T22:05:10;20.40;;;16.10;;
41514;SDS011;27247;48.020;16.720;2023-09-12T22:09:20;18.67;;;16.10;;
41514;SDS011;27247;48.020;16.720;2023-09-12T22:13:31;21.70;;;17.13;;
41514;SDS011;27247;48.020;16.720;2023-09-12T22:17:41;18.47;;;15.17;;
41514;SDS011;27247;48.020;16.720;2023-09-12T22:21:52;21.55;;;15.68;;
41514;SDS011;27247;48.020;16.720;2023-09-12T22:26:09;23.90;;;16.63;;
41514;SDS011;27247;48.020;16.720;2023-09-12T22:30:21;19.40;;;15.80;;
41514;SDS011;27247;48.020;16.720;2023-09-12T22:34:31;21.30;;;17.43;;
41514;SDS011;27247;48.020;16.720;2023-09-12T22:38:41;18.83;;;16.27;;
41514;SDS011;27247;48.020;16.720;2023-09-12T22:42:51;21.87;;;16.20;;
41514;SDS011;27247;48.020;16.720;2023-09-12T22:47:02;26.73;;;17.70;;
41514;SDS011;27247;48.020;16.720;2023-09-12T22:51:12;22.97;;;17.00;;
41514;SDS011;27247;48.020;16.720;2023-09-12T22:55:22;26.70;;;16.83;;
41514;SDS011;27247;48.020;16.720;2023-09-12T22:59:33;26.00;;;18.27;;
41514;SDS011;27247;48.020;16.720;2023-09-12T23:03:44;24.20;;;18.10;;
41514;SDS011;27247;48.020;16.720;2023-09-12T23:07:54;19.77;;;17.00;;
41514;SDS011;27247;48.020;16.720;2023-09-12T23:12:04;21.40;;;18.37;;
41514;SDS011;27247;48.020;16.720;2023-09-12T23:16:15;23.92;;;18.63;;
41514;SDS011;27247;48.020;16.720;2023-09-12T23:20:25;22.10;;;17.03;;
41514;SDS011;27247;48.020;16.720;2023-09-12T23:24:37;23.48;;;18.10;;
41514;SDS011;27247;48.020;16.720;2023-09-12T23:28:47;20.37;;;18.27;;
41514;SDS011;27247;48.020;16.720;2023-09-12T23:32:58;23.90;;;18.10;;
41514;SDS011;27247;48.020;16.720;2023-09-12T23:37:08;24.83;;;20.00;;
41514;SDS011;27247;48.020;16.720;2023-09-12T23:41:18;28.85;;;20.58;;
41514;SDS011;27247;48.020;16.720;2023-09-12T23:45:29;27.67;;;20.77;;
41514;SDS011;27247;48.020;16.720;2023-09-12T23:49:39;23.42;;;20.05;;
41514;SDS011;27247;48.020;16.720;2023-09-12T23:53:50;24.50;;;20.05;;
41514;SDS011;27247;48.020;16.720;2023-09-12T23:58:00;25.20;;;20.40;;
